createdAt,value
2022-10-13T00:00:48.026Z,13.68
2022-10-13T00:03:16.334Z,10.95
2022-10-13T00:05:45.517Z,15.00
2022-10-13T00:08:13.588Z,17.08
2022-10-13T00:10:40.967Z,15.68
2022-10-13T00:13:08.729Z,12.75
2022-10-13T00:15:42.383Z,13.68
2022-10-13T00:18:09.192Z,13.98
2022-10-13T00:20:40.260Z,14.15
2022-10-13T00:23:06.741Z,16.65
2022-10-13T00:25:33.182Z,14.10
2022-10-13T00:27:59.631Z,15.52
2022-10-13T00:30:26.190Z,15.57
2022-10-13T00:32:52.599Z,13.05
2022-10-13T00:35:19.011Z,17.38
2022-10-13T00:37:46.125Z,13.88
2022-10-13T00:40:12.590Z,17.45
2022-10-13T00:42:41.748Z,18.00
2022-10-13T00:45:22.707Z,15.18
2022-10-13T00:47:55.795Z,14.70
2022-10-13T00:50:34.043Z,16.83
2022-10-13T00:53:01.443Z,15.45
2022-10-13T00:55:31.258Z,14.43
2022-10-13T00:58:05.184Z,20.67
2022-10-13T01:00:33.457Z,16.67
2022-10-13T01:03:01.117Z,15.82
2022-10-13T01:05:28.436Z,17.77
2022-10-13T01:07:56.027Z,22.88
2022-10-13T01:10:44.995Z,18.92
2022-10-13T01:13:26.887Z,15.15
2022-10-13T01:16:22.506Z,17.90
2022-10-13T01:19:03.587Z,17.30
2022-10-13T01:22:08.158Z,23.08
2022-10-13T01:24:58.281Z,16.23
2022-10-13T01:27:36.691Z,26.80
2022-10-13T01:30:10.911Z,20.08
2022-10-13T01:38:14.504Z,18.45
2022-10-13T01:40:53.905Z,20.17
2022-10-13T01:43:25.211Z,21.08
2022-10-13T01:45:58.640Z,18.38
2022-10-13T01:48:27.783Z,24.42
2022-10-13T01:50:55.695Z,16.95
2022-10-13T01:53:23.367Z,22.83
2022-10-13T01:55:58.820Z,21.02
2022-10-13T01:58:31.222Z,19.38
2022-10-13T02:01:10.201Z,22.80
2022-10-13T02:03:56.815Z,22.83
2022-10-13T02:09:12.315Z,24.25
2022-10-13T02:11:47.813Z,31.60
2022-10-13T02:14:24.175Z,22.30
2022-10-13T02:16:53.697Z,24.00
2022-10-13T02:19:20.455Z,25.58
2022-10-13T02:21:50.765Z,27.23
2022-10-13T02:24:24.571Z,25.55
2022-10-13T02:26:52.111Z,20.98
2022-10-13T02:29:19.696Z,24.92
2022-10-13T02:31:46.567Z,27.20
2022-10-13T02:34:13.555Z,26.70
2022-10-13T02:36:40.377Z,26.73
2022-10-13T02:39:08.675Z,23.73
2022-10-13T02:41:35.254Z,22.80
2022-10-13T02:44:04.486Z,22.70
2022-10-13T02:46:31.463Z,28.02
2022-10-13T02:48:58.199Z,24.75
2022-10-13T02:51:24.679Z,24.70
2022-10-13T02:53:51.154Z,24.27
2022-10-13T02:56:17.528Z,25.33
2022-10-13T02:58:44.045Z,26.63
2022-10-13T03:01:15.842Z,25.52
2022-10-13T03:03:43.643Z,25.90
2022-10-13T03:06:10.274Z,26.35
2022-10-13T03:08:38.087Z,27.50
2022-10-13T03:11:04.613Z,26.55
2022-10-13T03:13:31.227Z,25.30
2022-10-13T03:15:57.662Z,23.77
2022-10-13T03:18:24.207Z,26.58
2022-10-13T03:21:02.330Z,26.25
2022-10-13T03:23:28.858Z,28.67
2022-10-13T03:25:56.587Z,28.77
2022-10-13T03:28:23.132Z,23.45
2022-10-13T03:30:49.745Z,23.05
2022-10-13T03:33:16.368Z,21.75
2022-10-13T03:35:42.853Z,26.70
2022-10-13T03:38:09.380Z,21.42
2022-10-13T03:40:36.919Z,32.38
2022-10-13T03:43:03.402Z,34.25
2022-10-13T03:45:31.296Z,30.95
2022-10-13T03:47:58.187Z,29.73
2022-10-13T03:50:24.624Z,29.95
2022-10-13T03:52:51.057Z,24.55
2022-10-13T03:55:17.592Z,29.75
2022-10-13T03:57:44.047Z,24.70
2022-10-13T04:00:11.340Z,28.70
2022-10-13T04:02:38.734Z,26.42
2022-10-13T04:05:05.586Z,25.67
2022-10-13T04:07:32.259Z,25.05
2022-10-13T04:09:58.739Z,23.17
2022-10-13T04:12:25.590Z,28.50
2022-10-13T04:14:52.168Z,30.17
2022-10-13T04:17:18.800Z,33.10
2022-10-13T04:19:45.206Z,24.58
2022-10-13T04:22:11.668Z,28.27
2022-10-13T04:24:38.054Z,28.48
2022-10-13T04:27:04.523Z,22.60
2022-10-13T04:29:31.669Z,25.85
2022-10-13T04:32:00.003Z,26.17
2022-10-13T04:34:26.487Z,23.52
2022-10-13T04:36:52.971Z,29.30
2022-10-13T04:39:20.545Z,23.33
2022-10-13T04:41:50.681Z,23.40
2022-10-13T04:44:17.172Z,33.13
2022-10-13T04:46:43.573Z,26.60
2022-10-13T04:49:10.106Z,28.02
2022-10-13T04:51:36.544Z,29.33
2022-10-13T04:54:05.405Z,24.05
2022-10-13T04:56:32.658Z,28.65
2022-10-13T04:58:59.876Z,29.35
2022-10-13T05:01:27.218Z,29.65
2022-10-13T05:03:55.523Z,26.77
2022-10-13T05:06:28.044Z,24.83
2022-10-13T05:08:54.720Z,33.92
2022-10-13T05:11:21.699Z,25.52
2022-10-13T05:13:49.967Z,22.42
2022-10-13T05:16:21.051Z,25.00
2022-10-13T05:18:48.593Z,27.38
2022-10-13T05:21:24.874Z,26.25
2022-10-13T05:23:54.287Z,28.92
2022-10-13T05:26:22.804Z,27.13
2022-10-13T05:28:50.107Z,24.52
2022-10-13T05:31:22.056Z,28.67
2022-10-13T05:33:49.935Z,26.48
2022-10-13T05:36:22.399Z,34.85
2022-10-13T05:38:56.615Z,32.63
2022-10-13T05:41:25.025Z,27.02
2022-10-13T05:43:55.394Z,26.88
2022-10-13T05:46:21.881Z,29.23
2022-10-13T05:48:50.751Z,32.78
2022-10-13T05:51:22.500Z,28.45
2022-10-13T05:53:57.701Z,26.90
2022-10-13T05:56:27.223Z,27.13
2022-10-13T05:58:59.420Z,26.70
2022-10-13T06:01:30.419Z,28.70
2022-10-13T06:04:01.685Z,36.47
2022-10-13T06:06:31.436Z,30.88
2022-10-13T06:08:59.174Z,32.83
2022-10-13T06:11:25.779Z,35.47
2022-10-13T06:13:52.238Z,29.90
2022-10-13T06:16:20.207Z,30.50
2022-10-13T06:18:46.986Z,34.70
2022-10-13T06:21:13.575Z,38.08
2022-10-13T06:23:40.137Z,30.13
2022-10-13T06:26:07.957Z,29.08
2022-10-13T06:28:35.845Z,31.42
2022-10-13T06:31:04.956Z,27.70
2022-10-13T06:33:31.436Z,30.55
2022-10-13T06:36:02.428Z,29.23
2022-10-13T06:38:29.080Z,35.03
2022-10-13T06:40:59.751Z,27.33
2022-10-13T06:43:33.357Z,35.45
2022-10-13T06:46:05.445Z,31.58
2022-10-13T06:48:32.042Z,30.70
2022-10-13T06:51:03.863Z,34.80
2022-10-13T06:53:30.730Z,36.65
2022-10-13T06:56:01.848Z,33.17
2022-10-13T06:58:28.759Z,34.80
2022-10-13T07:00:55.692Z,35.08
2022-10-13T07:03:22.492Z,25.92
2022-10-13T07:05:48.960Z,32.63
2022-10-13T07:08:15.805Z,35.28
2022-10-13T07:10:43.069Z,29.58
2022-10-13T07:13:09.687Z,31.90
2022-10-13T07:15:41.870Z,26.17
2022-10-13T07:18:08.375Z,28.80
2022-10-13T07:20:35.210Z,27.52
2022-10-13T07:23:02.118Z,34.03
2022-10-13T07:25:28.752Z,32.17
2022-10-13T07:27:55.191Z,27.52
2022-10-13T07:30:21.871Z,35.13
2022-10-13T07:32:48.669Z,30.98
2022-10-13T07:35:15.534Z,34.38
2022-10-13T07:37:42.035Z,29.42
2022-10-13T07:40:09.119Z,28.88
2022-10-13T07:42:35.540Z,37.42
2022-10-13T07:45:01.998Z,35.53
2022-10-13T07:47:29.061Z,38.40
2022-10-13T07:49:58.665Z,31.77
2022-10-13T07:52:26.646Z,32.65
2022-10-13T07:54:53.900Z,33.75
2022-10-13T07:57:20.395Z,37.85
2022-10-13T07:59:47.075Z,31.80
2022-10-13T08:02:13.877Z,35.75
2022-10-13T08:04:40.306Z,45.85
2022-10-13T08:07:07.073Z,38.95
2022-10-13T08:09:34.231Z,37.80
2022-10-13T08:12:02.116Z,36.33
2022-10-13T08:14:29.780Z,43.75
2022-10-13T08:16:57.243Z,34.05
2022-10-13T08:19:26.370Z,40.30
2022-10-13T08:21:58.092Z,38.75
2022-10-13T08:24:26.421Z,43.53
2022-10-13T08:26:52.931Z,33.33
2022-10-13T08:29:22.567Z,40.78
2022-10-13T08:31:51.105Z,40.28
2022-10-13T08:34:17.755Z,40.22
2022-10-13T08:36:44.215Z,42.00
2022-10-13T08:39:11.137Z,38.33
2022-10-13T08:41:40.519Z,37.83
2022-10-13T08:47:40.118Z,43.88
2022-10-13T08:50:25.474Z,34.50
2022-10-13T08:53:02.250Z,35.72
2022-10-13T08:55:41.243Z,42.10
2022-10-13T08:58:29.164Z,35.75
2022-10-13T09:00:58.728Z,36.10
2022-10-13T09:03:28.273Z,38.03
2022-10-13T09:06:13.354Z,34.20
2022-10-13T09:08:48.746Z,38.42
2022-10-13T09:11:15.161Z,34.13
2022-10-13T09:13:41.681Z,32.13
2022-10-13T09:16:08.188Z,34.25
2022-10-13T09:18:35.289Z,31.65
2022-10-13T09:21:19.088Z,30.58
2022-10-13T09:23:45.690Z,32.72
2022-10-13T09:26:19.949Z,33.88
2022-10-13T09:31:30.513Z,29.90
2022-10-13T09:34:02.914Z,30.55
2022-10-13T09:36:31.289Z,33.60
2022-10-13T09:39:15.496Z,34.90
2022-10-13T09:41:43.783Z,36.42
2022-10-13T09:44:27.699Z,33.45
2022-10-13T09:46:59.332Z,37.75
2022-10-13T09:49:28.594Z,33.78
2022-10-13T09:52:01.388Z,35.05
2022-10-13T09:54:33.549Z,28.35
2022-10-13T09:57:05.658Z,33.60
2022-10-13T09:59:39.823Z,27.45
2022-10-13T10:04:49.697Z,28.38
2022-10-13T10:07:22.133Z,29.77
2022-10-13T10:09:53.023Z,27.67
2022-10-13T10:12:27.646Z,31.90
2022-10-13T10:14:54.372Z,31.60
2022-10-13T10:17:33.512Z,29.23
2022-10-13T10:20:37.461Z,34.47
2022-10-13T10:23:06.706Z,31.05
2022-10-13T10:25:52.931Z,27.02
2022-10-13T10:28:34.497Z,31.15
2022-10-13T10:31:13.766Z,30.58
2022-10-13T10:33:59.882Z,34.03
2022-10-13T10:36:54.338Z,31.10
2022-10-13T10:39:26.588Z,32.45
2022-10-13T10:42:25.651Z,33.65
2022-10-13T10:44:55.489Z,31.45
2022-10-13T10:47:28.606Z,31.50
2022-10-13T10:50:05.007Z,31.98
2022-10-13T10:52:55.988Z,33.00
2022-10-13T10:55:26.659Z,38.08
2022-10-13T10:57:58.465Z,35.80
2022-10-13T11:00:25.177Z,41.75
2022-10-13T11:03:14.826Z,41.58
2022-10-13T11:06:00.006Z,40.63
2022-10-13T11:08:47.844Z,36.85
2022-10-13T11:11:24.688Z,41.30
2022-10-13T11:16:30.729Z,35.63
2022-10-13T11:19:28.217Z,39.90
2022-10-13T11:22:00.703Z,37.05
2022-10-13T11:24:46.146Z,23.65
2022-10-13T11:27:15.445Z,9.52
2022-10-13T11:29:49.119Z,4.53
2022-10-13T11:32:28.170Z,8.68
2022-10-13T11:35:06.598Z,3.72
2022-10-13T11:38:07.318Z,4.55
2022-10-13T11:41:05.569Z,4.63
2022-10-13T11:43:32.002Z,6.47
2022-10-13T11:46:20.613Z,4.72
2022-10-13T11:49:05.721Z,6.60
2022-10-13T11:51:41.253Z,3.95
2022-10-13T11:54:21.616Z,4.97
2022-10-13T11:56:51.512Z,3.58
2022-10-13T11:59:29.141Z,3.13
2022-10-13T12:01:56.839Z,3.35
2022-10-13T12:04:25.362Z,3.08
2022-10-13T12:06:59.296Z,4.32
2022-10-13T12:09:27.638Z,3.60
2022-10-13T12:12:04.109Z,3.53
2022-10-13T12:14:32.827Z,2.75
2022-10-13T12:17:01.128Z,3.70
2022-10-13T12:19:30.514Z,6.35
2022-10-13T12:22:00.300Z,3.72
2022-10-13T12:24:29.495Z,3.88
2022-10-13T12:26:56.708Z,2.60
2022-10-13T12:29:30.246Z,3.50
2022-10-13T12:32:00.012Z,2.83
2022-10-13T12:34:33.297Z,2.83
2022-10-13T12:37:01.325Z,2.95
2022-10-13T12:42:00.566Z,2.97
2022-10-13T12:44:30.206Z,4.28
2022-10-13T12:46:59.266Z,3.28
2022-10-13T12:49:27.016Z,3.83
2022-10-13T12:52:17.620Z,6.38
2022-10-13T12:54:59.243Z,4.07
2022-10-13T12:57:38.557Z,4.22
2022-10-13T13:00:22.069Z,5.53
2022-10-13T13:02:54.868Z,5.63
2022-10-13T13:05:39.716Z,4.10
2022-10-13T13:08:29.727Z,3.92
2022-10-13T13:11:01.360Z,4.90
2022-10-13T13:13:28.894Z,3.55
2022-10-13T13:16:14.358Z,5.80
2022-10-13T13:18:42.408Z,4.57
2022-10-13T13:23:37.424Z,4.55
2022-10-13T13:26:21.113Z,5.03
2022-10-13T13:28:49.939Z,4.47
2022-10-13T13:31:19.299Z,3.83
2022-10-13T13:33:46.611Z,3.80
2022-10-13T13:36:20.684Z,4.55
2022-10-13T13:38:47.857Z,3.95
2022-10-13T13:41:15.572Z,4.82
2022-10-13T13:43:42.081Z,5.88
2022-10-13T13:46:19.484Z,3.92
2022-10-13T13:48:48.368Z,4.50
2022-10-13T13:51:14.980Z,4.63
2022-10-13T13:53:41.619Z,3.80
2022-10-13T13:56:16.488Z,4.95
2022-10-13T13:58:44.075Z,8.75
2022-10-13T14:01:11.762Z,12.23
2022-10-13T14:03:38.628Z,4.95
2022-10-13T14:06:05.561Z,6.20
2022-10-13T14:08:34.093Z,5.63
2022-10-13T14:11:00.672Z,4.03
2022-10-13T14:13:27.276Z,4.47
2022-10-13T14:15:58.179Z,6.47
2022-10-13T14:18:25.300Z,3.60
2022-10-13T14:20:51.854Z,4.60
2022-10-13T14:23:18.724Z,5.30
2022-10-13T14:25:50.039Z,4.60
2022-10-13T14:28:18.510Z,6.32
2022-10-13T14:30:45.173Z,6.70
2022-10-13T14:33:14.040Z,6.60
2022-10-13T14:35:40.430Z,5.50
2022-10-13T14:38:07.073Z,6.03
2022-10-13T14:40:33.933Z,5.25
2022-10-13T14:43:00.365Z,4.13
2022-10-13T14:45:26.751Z,7.90
2022-10-13T14:47:53.705Z,5.68
2022-10-13T14:50:23.652Z,5.90
2022-10-13T14:52:50.149Z,5.05
2022-10-13T14:55:16.741Z,7.60
2022-10-13T14:57:43.221Z,4.05
2022-10-13T15:00:10.814Z,8.27
2022-10-13T15:02:37.276Z,7.18
2022-10-13T15:05:04.043Z,4.72
2022-10-13T15:07:30.777Z,5.65
2022-10-13T15:10:06.163Z,4.45
2022-10-13T15:12:33.783Z,4.25
2022-10-13T15:15:00.372Z,4.57
2022-10-13T15:17:27.893Z,3.60
2022-10-13T15:19:54.328Z,6.00
2022-10-13T15:22:23.562Z,6.10
2022-10-13T15:24:50.248Z,5.13
2022-10-13T15:27:16.884Z,5.47
2022-10-13T15:29:43.389Z,8.70
2022-10-13T15:32:12.859Z,5.53
2022-10-13T15:34:40.054Z,6.22
2022-10-13T15:37:07.049Z,7.43
2022-10-13T15:39:33.599Z,6.53
2022-10-13T15:42:00.105Z,7.78
2022-10-13T15:44:26.892Z,7.57
2022-10-13T15:47:07.975Z,7.28
2022-10-13T15:49:39.814Z,6.50
2022-10-13T15:52:06.403Z,5.97
2022-10-13T15:54:32.936Z,5.85
2022-10-13T15:56:59.706Z,5.60
2022-10-13T15:59:26.274Z,5.38
2022-10-13T16:01:52.691Z,6.68
2022-10-13T16:04:19.530Z,8.40
2022-10-13T16:06:46.267Z,7.25
2022-10-13T16:09:12.699Z,8.05
2022-10-13T16:11:39.094Z,6.93
2022-10-13T16:14:05.518Z,7.60
2022-10-13T16:16:32.001Z,7.63
2022-10-13T16:18:59.773Z,7.10
2022-10-13T16:21:26.425Z,7.80
2022-10-13T16:23:53.155Z,5.45
2022-10-13T16:26:19.824Z,3.85
2022-10-13T16:28:46.800Z,4.50
2022-10-13T16:31:16.087Z,5.03
2022-10-13T16:33:44.806Z,3.55
2022-10-13T16:36:15.084Z,4.32
2022-10-13T16:38:42.772Z,3.13
2022-10-13T16:41:14.460Z,3.35
2022-10-13T16:43:42.089Z,6.10
2022-10-13T16:46:14.811Z,4.97
2022-10-13T16:48:42.624Z,4.15
2022-10-13T16:51:12.912Z,5.80
2022-10-13T16:53:39.638Z,4.40
2022-10-13T16:56:07.119Z,6.57
2022-10-13T16:58:34.403Z,6.00
2022-10-13T17:01:09.150Z,8.25
2022-10-13T17:03:36.431Z,6.63
2022-10-13T17:06:03.043Z,6.15
2022-10-13T17:08:29.789Z,6.70
2022-10-13T17:10:58.421Z,6.75
2022-10-13T17:13:25.056Z,6.53
2022-10-13T17:15:53.292Z,4.80
2022-10-13T17:18:20.462Z,7.40
2022-10-13T17:20:56.393Z,5.78
2022-10-13T17:23:24.459Z,7.20
2022-10-13T17:28:18.894Z,7.55
2022-10-13T17:30:55.769Z,9.05
2022-10-13T17:33:22.171Z,10.43
2022-10-13T17:35:48.656Z,11.30
2022-10-13T17:38:15.113Z,14.55
2022-10-13T17:40:41.571Z,13.10
2022-10-13T17:43:08.642Z,14.07
2022-10-13T17:45:35.103Z,14.25
2022-10-13T17:48:01.714Z,10.63
2022-10-13T17:50:29.253Z,9.35
2022-10-13T17:52:55.643Z,9.43
2022-10-13T17:55:22.147Z,11.73
2022-10-13T17:57:48.749Z,8.30
2022-10-13T18:00:16.216Z,8.57
2022-10-13T18:02:43.060Z,12.93
2022-10-13T18:05:09.783Z,8.75
2022-10-13T18:07:36.640Z,8.52
2022-10-13T18:10:04.835Z,8.77
2022-10-13T18:12:31.973Z,8.10
2022-10-13T18:14:58.812Z,8.52
2022-10-13T18:17:25.400Z,8.02
2022-10-13T18:19:53.720Z,7.05
2022-10-13T18:22:20.250Z,8.68
2022-10-13T18:24:47.096Z,9.80
2022-10-13T18:27:13.624Z,7.35
2022-10-13T18:29:40.130Z,9.48
2022-10-13T18:32:06.672Z,8.10
2022-10-13T18:34:33.286Z,7.90
2022-10-13T18:36:59.806Z,7.75
2022-10-13T18:39:28.679Z,7.10
2022-10-13T18:41:57.775Z,7.38
2022-10-13T18:44:25.114Z,6.38
2022-10-13T18:46:53.771Z,8.73
2022-10-13T18:49:23.204Z,6.82
2022-10-13T18:51:51.582Z,5.63
2022-10-13T18:54:18.430Z,7.38
2022-10-13T18:56:47.613Z,8.57
2022-10-13T18:59:14.126Z,6.68
2022-10-13T19:01:41.022Z,8.30
2022-10-13T19:04:08.511Z,8.88
2022-10-13T19:06:37.498Z,10.35
2022-10-13T19:09:15.370Z,11.98
2022-10-13T19:11:41.913Z,12.63
2022-10-13T19:14:11.277Z,15.10
2022-10-13T19:16:41.133Z,9.98
2022-10-13T19:19:09.223Z,12.25
2022-10-13T19:24:03.636Z,13.45
2022-10-13T19:26:32.655Z,16.95
2022-10-13T19:29:03.376Z,14.32
2022-10-13T19:31:32.826Z,14.00
2022-10-13T19:34:00.153Z,14.10
2022-10-13T19:36:32.408Z,14.93
2022-10-13T19:38:59.912Z,11.85
2022-10-13T19:41:28.377Z,16.67
2022-10-13T19:43:55.595Z,16.33
2022-10-13T19:46:22.466Z,23.33
2022-10-13T19:48:49.001Z,19.17
2022-10-13T19:51:18.813Z,16.10
2022-10-13T19:53:45.415Z,17.52
2022-10-13T19:56:23.963Z,18.23
2022-10-13T19:58:51.452Z,19.92
2022-10-13T20:01:19.818Z,20.50
2022-10-13T20:03:47.080Z,24.20
2022-10-13T20:06:14.249Z,26.35
2022-10-13T20:08:40.968Z,31.23
2022-10-13T20:11:13.293Z,27.58
2022-10-13T20:13:39.965Z,32.33
2022-10-13T20:16:13.486Z,30.75
2022-10-13T20:18:41.271Z,33.47
2022-10-13T20:21:12.536Z,27.80
2022-10-13T20:23:40.899Z,29.40
2022-10-13T20:26:11.979Z,28.23
2022-10-13T20:28:43.981Z,29.92
2022-10-13T20:31:12.740Z,28.85
2022-10-13T20:33:40.326Z,26.38
2022-10-13T20:36:09.554Z,26.05
2022-10-13T20:38:36.194Z,30.80
2022-10-13T20:41:20.665Z,30.42
2022-10-13T20:43:48.198Z,27.17
2022-10-13T20:46:16.759Z,26.70
2022-10-13T20:51:30.659Z,30.92
2022-10-13T20:53:57.374Z,25.65
2022-10-13T20:56:26.196Z,29.92
2022-10-13T20:58:53.172Z,35.13
2022-10-13T21:01:21.892Z,31.75
2022-10-13T21:03:53.003Z,27.45
2022-10-13T21:06:19.673Z,28.23
2022-10-13T21:08:47.187Z,30.60
2022-10-13T21:11:15.693Z,25.50
2022-10-13T21:13:43.605Z,29.45
2022-10-13T21:16:13.376Z,28.30
2022-10-13T21:18:40.181Z,31.35
2022-10-13T21:21:11.151Z,27.73
2022-10-13T21:23:38.120Z,29.75
2022-10-13T21:26:07.038Z,30.25
2022-10-13T21:28:36.374Z,38.00
2022-10-13T21:31:11.314Z,55.90
2022-10-13T21:33:39.042Z,59.65
2022-10-13T21:36:12.937Z,57.55
2022-10-13T21:38:39.983Z,48.90
2022-10-13T21:41:08.055Z,57.70
2022-10-13T21:43:34.602Z,36.22
2022-10-13T21:46:13.068Z,37.10
2022-10-13T21:48:39.955Z,45.63
2022-10-13T21:51:21.237Z,49.65
2022-10-13T21:53:55.549Z,48.75
2022-10-13T21:58:49.367Z,55.38
2022-10-13T22:01:17.308Z,58.88
2022-10-13T22:03:47.015Z,54.17
2022-10-13T22:06:19.079Z,51.20
2022-10-13T22:08:49.688Z,44.95
2022-10-13T22:11:17.331Z,58.80
2022-10-13T22:13:44.053Z,55.10
2022-10-13T22:16:17.560Z,62.35
2022-10-13T22:18:44.045Z,66.35
2022-10-13T22:21:14.283Z,83.97
2022-10-13T22:23:41.943Z,97.40
2022-10-13T22:26:08.700Z,73.40
2022-10-13T22:28:37.435Z,82.43
2022-10-13T22:31:10.077Z,63.45
2022-10-13T22:33:37.793Z,84.43
2022-10-13T22:36:08.269Z,65.45
2022-10-13T22:38:35.306Z,79.55
2022-10-13T22:41:03.240Z,76.50
2022-10-13T22:43:29.723Z,80.43
2022-10-13T22:45:56.390Z,86.55
2022-10-13T22:48:22.947Z,77.70
2022-10-13T22:50:50.966Z,70.50
2022-10-13T22:53:17.515Z,68.70
2022-10-13T22:55:43.956Z,80.05
2022-10-13T22:58:10.483Z,78.43
2022-10-13T23:00:38.148Z,78.75
2022-10-13T23:03:05.714Z,56.33
2022-10-13T23:05:32.517Z,57.33
2022-10-13T23:07:58.964Z,59.65
2022-10-13T23:10:25.540Z,70.35
2022-10-13T23:12:52.091Z,81.07
2022-10-13T23:15:18.664Z,67.68
2022-10-13T23:17:45.096Z,64.18
2022-10-13T23:20:11.748Z,72.93
2022-10-13T23:22:38.348Z,52.95
2022-10-13T23:25:05.092Z,62.58
2022-10-13T23:27:31.521Z,61.17
2022-10-13T23:29:57.998Z,50.88
2022-10-13T23:32:24.435Z,33.15
2022-10-13T23:34:50.847Z,39.05
2022-10-13T23:37:17.720Z,41.95
2022-10-13T23:39:44.142Z,33.08
2022-10-13T23:42:10.663Z,33.97
2022-10-13T23:44:37.195Z,36.88
2022-10-13T23:47:03.720Z,34.25
2022-10-13T23:49:30.152Z,44.50
2022-10-13T23:51:56.747Z,52.13
2022-10-13T23:54:23.186Z,51.50
2022-10-13T23:56:49.760Z,57.75
2022-10-13T23:59:16.317Z,72.47
